Time;durP1;ratioP1;P1;durP2;ratioP2;P2;SDS_P1;SDS_P2;PMS_P1;PMS_P2;Temp;Humidity;BMP_temperature;BMP_pressure;BME280_temperature;BME280_humidity;BME280_pressure;Samples;Min_cycle;Max_cycle;Signal;HPM_P1;HPM_P2
2024/04/12 00:01:44;;;;;;;6.00;3.20;;;;;;;13.29;48.73;100788.06;109302;1252;73146;-79
2024/04/12 00:04:17;;;;;;;3.70;2.30;;;;;;;13.21;48.58;100787.19;109270;1253;70569;-81
2024/04/12 00:06:59;;;;;;;4.10;1.90;;;;;;;13.14;48.81;100786.13;109271;1254;71597;-80
2024/04/12 00:09:30;;;;;;;2.80;2.00;;;;;;;13.11;48.97;100790.02;109326;1253;59546;-79
2024/04/12 00:12:00;;;;;;;4.50;1.90;;;;;;;13.07;48.99;100788.35;109300;1254;59459;-77
2024/04/12 00:14:27;;;;;;;4.30;1.70;;;;;;;13.03;49.07;100786.76;109370;1254;73148;-78
2024/04/12 00:16:53;;;;;;;6.10;1.80;;;;;;;13.00;49.48;100786.52;109056;1253;60718;-82
2024/04/12 00:19:23;;;;;;;3.30;2.20;;;;;;;12.99;49.42;100784.85;109206;1253;72516;-79
2024/04/12 00:21:55;;;;;;;14.20;9.40;;;;;;;12.97;49.74;100782.95;109361;1254;58969;-75
2024/04/12 00:24:26;;;;;;;6.60;3.50;;;;;;;12.91;49.79;100780.38;109408;1253;59684;-78
2024/04/12 00:26:55;;;;;;;4.90;2.20;;;;;;;12.81;49.89;100781.37;109221;1254;73157;-77
2024/04/12 00:29:36;;;;;;;2.70;1.90;;;;;;;12.73;50.19;100783.55;109293;1252;69213;-76
2024/04/12 00:32:18;;;;;;;4.90;2.30;;;;;;;12.69;50.53;100781.16;109360;1252;71241;-78
2024/04/12 00:34:47;;;;;;;5.50;2.10;;;;;;;12.63;50.65;100780.02;109307;1253;59386;-78
2024/04/12 00:37:18;;;;;;;3.60;2.00;;;;;;;12.57;50.78;100781.81;109008;1254;61105;-77
2024/04/12 00:39:48;;;;;;;3.20;2.10;;;;;;;12.50;50.90;100786.27;106766;1254;73377;-78
2024/04/12 00:42:25;;;;;;;5.50;2.00;;;;;;;12.45;51.02;100783.95;106570;1257;68996;-78
2024/04/12 00:44:54;;;;;;;5.40;2.00;;;;;;;12.43;51.04;100787.07;107882;1253;71022;-77
2024/04/12 00:47:21;;;;;;;4.80;2.20;;;;;;;12.39;51.01;100786.88;107095;1253;61279;-78
2024/04/12 00:49:50;;;;;;;7.10;2.00;;;;;;;12.36;51.28;100792.70;106450;1253;61112;-79
2024/04/12 00:52:27;;;;;;;4.20;1.90;;;;;;;12.32;51.57;100789.05;106209;1254;76316;-78
2024/04/12 00:54:55;;;;;;;3.50;2.20;;;;;;;12.23;51.54;100788.33;106974;1253;68041;-79
2024/04/12 00:57:23;;;;;;;4.00;1.80;;;;;;;12.16;51.95;100792.94;106530;1253;71506;-77
2024/04/12 00:59:51;;;;;;;4.10;2.00;;;;;;;12.07;52.00;100792.08;106076;1260;61580;-78
2024/04/12 01:02:24;;;;;;;5.50;2.50;;;;;;;12.00;52.19;100791.33;106173;1253;61215;-76
2024/04/12 01:04:53;;;;;;;3.80;2.10;;;;;;;11.96;52.31;100788.58;106311;1257;73199;-77
2024/04/12 01:07:20;;;;;;;5.90;2.60;;;;;;;11.93;52.60;100789.10;106346;1252;70308;-81
2024/04/12 01:09:46;;;;;;;4.70;1.90;;;;;;;11.87;52.58;100788.27;107806;1253;71681;-81
2024/04/12 01:12:17;;;;;;;3.20;1.70;;;;;;;11.83;53.09;100786.17;106994;1252;61239;-77
2024/04/12 01:14:46;;;;;;;6.20;2.10;;;;;;;11.79;53.41;100781.56;106221;1258;61314;-77
2024/04/12 01:17:13;;;;;;;6.40;2.30;;;;;;;11.73;53.61;100779.04;108288;1253;73067;-77
2024/04/12 01:19:40;;;;;;;4.80;2.10;;;;;;;11.70;53.55;100781.30;108542;1252;68848;-74
2024/04/12 01:22:08;;;;;;;12.70;2.40;;;;;;;11.69;53.28;100778.35;108203;1256;72658;-77
2024/04/12 01:24:39;;;;;;;4.60;1.90;;;;;;;11.66;53.40;100781.63;106296;1253;61260;-76
2024/04/12 01:27:06;;;;;;;6.60;2.40;;;;;;;11.63;53.45;100775.17;106235;1256;61192;-77
2024/04/12 01:29:33;;;;;;;5.50;2.10;;;;;;;11.60;53.93;100777.60;106543;1254;74827;-75
2024/04/12 01:32:03;;;;;;;6.20;2.60;;;;;;;11.54;53.15;100772.81;106532;1254;70193;-77
2024/04/12 01:34:31;;;;;;;8.30;2.40;;;;;;;11.52;53.67;100772.69;106274;1253;71552;-78
2024/04/12 01:37:00;;;;;;;7.00;2.50;;;;;;;11.50;53.86;100773.94;106098;1253;61349;-76
2024/04/12 01:39:28;;;;;;;3.90;2.00;;;;;;;11.50;53.46;100773.96;106088;1253;61115;-80
2024/04/12 01:41:55;;;;;;;4.40;2.30;;;;;;;11.49;53.38;100771.56;106922;1253;73152;-77
2024/04/12 01:44:24;;;;;;;4.40;1.90;;;;;;;11.46;53.18;100774.29;107029;1256;68968;-77
2024/04/12 01:46:52;;;;;;;4.90;1.80;;;;;;;11.45;53.02;100775.30;106779;1254;72371;-78
2024/04/12 01:49:22;;;;;;;3.00;2.00;;;;;;;11.41;53.07;100773.20;106443;1256;205588;-79
2024/04/12 01:53:23;;;;;;;5.40;2.30;;;;;;;11.43;53.08;100769.00;102698;1295;601144;-78
2024/04/12 01:55:51;;;;;;;5.30;2.20;;;;;;;11.40;53.16;100768.48;105840;1259;62730;-80
2024/04/12 01:58:19;;;;;;;6.70;2.90;;;;;;;11.41;53.11;100768.46;105752;1254;59680;-80
2024/04/12 02:00:49;;;;;;;5.10;2.00;;;;;;;11.38;53.18;100765.65;105881;1254;71966;-79
2024/04/12 02:03:17;;;;;;;5.60;2.10;;;;;;;11.35;53.13;100766.16;105905;1259;70457;-79
2024/04/12 02:05:47;;;;;;;6.40;2.50;;;;;;;11.33;52.97;100768.71;105802;1254;72634;-80
2024/04/12 02:08:18;;;;;;;4.50;2.60;;;;;;;11.33;53.34;100767.14;105769;1254;60283;-78
2024/04/12 02:10:48;;;;;;;8.40;2.90;;;;;;;11.32;53.20;100769.47;106004;1254;61201;-78
2024/04/12 02:13:22;;;;;;;6.00;2.70;;;;;;;11.30;52.98;100766.67;108213;1253;71819;-79
2024/04/12 02:15:52;;;;;;;7.90;2.50;;;;;;;11.28;53.60;100767.98;109006;1254;68760;-80
2024/04/12 02:18:21;;;;;;;5.60;2.50;;;;;;;11.25;53.56;100768.71;107292;1253;71759;-78
2024/04/12 02:20:51;;;;;;;7.30;2.20;;;;;;;11.26;53.34;100773.98;107139;1257;60527;-78
2024/04/12 02:23:19;;;;;;;8.50;2.70;;;;;;;11.26;53.45;100771.88;106296;1254;60603;-80
2024/04/12 02:25:49;;;;;;;6.20;2.50;;;;;;;11.24;53.43;100772.05;107711;1253;75880;-80
2024/04/12 02:28:16;;;;;;;5.10;2.40;;;;;;;11.23;53.45;100775.10;106189;1254;69936;-80
2024/04/12 02:30:53;;;;;;;7.90;3.20;;;;;;;11.20;53.29;100772.77;106114;1253;71973;-78
2024/04/12 02:33:21;;;;;;;7.20;2.50;;;;;;;11.18;53.39;100774.88;106063;1254;60482;-78
2024/04/12 02:35:59;;;;;;;4.10;2.20;;;;;;;11.16;53.49;100775.98;106428;1256;60426;-80
2024/04/12 02:38:28;;;;;;;3.90;2.40;;;;;;;11.14;53.49;100772.29;106365;1253;73962;-80
2024/04/12 02:40:58;;;;;;;6.10;2.90;;;;;;;11.13;53.41;100778.77;106240;1256;70482;-78
2024/04/12 02:43:25;;;;;;;6.00;2.50;;;;;;;11.13;53.31;100775.70;105868;1254;70462;-76
2024/04/12 02:46:00;;;;;;;7.50;3.10;;;;;;;11.13;53.22;100778.18;105903;1254;60432;-77
2024/04/12 02:48:33;;;;;;;11.30;5.10;;;;;;;11.12;53.30;100776.73;105795;1253;60497;-75
2024/04/12 02:51:03;;;;;;;;;;;;;;;11.10;53.65;100781.16;106137;1254;72675;-77
2024/04/12 02:53:32;;;;;;;5.30;2.60;;;;;;;11.08;53.45;100785.05;107459;1256;70166;-78
2024/04/12 02:56:08;;;;;;;6.70;3.00;;;;;;;11.06;53.56;100780.83;107417;1254;71405;-78
2024/04/12 02:58:40;;;;;;;4.30;2.40;;;;;;;11.06;53.82;100783.20;105660;1260;60536;-75
2024/04/12 03:01:13;;;;;;;7.80;3.20;;;;;;;11.05;53.98;100780.92;105867;1259;60884;-77
2024/04/12 03:03:46;;;;;;;10.40;4.90;;;;;;;11.03;54.03;100782.70;106096;1257;74446;-79
2024/04/12 03:06:21;;;;;;;6.60;2.10;;;;;;;10.99;54.02;100785.92;106011;1254;70166;-77
2024/04/12 03:08:51;;;;;;;8.30;2.90;;;;;;;10.92;54.18;100784.43;106297;1254;72480;-78
2024/04/12 03:11:25;;;;;;;4.50;2.40;;;;;;;10.86;54.20;100785.92;107681;1254;60511;-76
2024/04/12 03:13:59;;;;;;;8.90;2.80;;;;;;;10.82;54.44;100783.23;107422;1254;59397;-77
2024/04/12 03:16:26;;;;;;;;;;;;;;;10.81;54.72;100782.98;105954;1259;74814;-79
2024/04/12 03:18:54;;;;;;;4.80;2.10;;;;;;;10.80;54.64;100786.33;105930;1257;68722;-76
2024/04/12 03:21:22;;;;;;;5.70;2.90;;;;;;;10.78;54.71;100784.73;106011;1254;73176;-76
2024/04/12 03:23:49;;;;;;;5.40;2.80;;;;;;;10.77;54.72;100783.23;106066;1254;60542;-73
2024/04/12 03:26:24;;;;;;;8.00;3.10;;;;;;;10.75;54.91;100786.89;106627;1253;62261;-76
2024/04/12 03:28:55;;;;;;;5.90;3.00;;;;;;;10.74;55.01;100785.94;106252;1257;73837;-73
2024/04/12 03:31:28;;;;;;;6.60;2.70;;;;;;;10.71;55.11;100789.41;106101;1254;69028;-76
2024/04/12 03:33:56;;;;;;;6.40;2.90;;;;;;;10.68;54.99;100794.84;106290;1254;73188;-74
2024/04/12 03:41:51;;;;;;;13.10;8.70;;;;;;;10.65;55.23;100793.56;105983;1253;72775;-76
2024/04/12 03:44:19;;;;;;;6.10;3.70;;;;;;;10.66;55.49;100792.33;106034;1254;70116;-77
2024/04/12 03:46:50;;;;;;;5.60;3.00;;;;;;;10.68;56.00;100791.08;105874;1254;71418;-76
2024/04/12 03:49:21;;;;;;;7.30;2.80;;;;;;;10.67;55.72;100792.98;106059;1256;60450;-74
2024/04/12 03:51:51;;;;;;;4.80;2.90;;;;;;;10.63;55.61;100794.07;106028;1254;60478;-76
2024/04/12 03:54:21;;;;;;;5.90;2.90;;;;;;;10.62;55.66;100798.58;106012;1257;72687;-74
2024/04/12 03:56:51;;;;;;;8.50;3.00;;;;;;;10.66;55.82;100800.14;105961;1254;70613;-75
2024/04/12 03:59:20;;;;;;;6.10;3.10;;;;;;;10.73;55.80;100800.95;105937;1254;72657;-77
2024/04/12 04:01:48;;;;;;;6.70;3.40;;;;;;;10.80;56.20;100802.01;106033;1253;60583;-76
2024/04/12 04:04:19;;;;;;;8.30;3.60;;;;;;;10.86;56.17;100804.41;106568;1254;60373;-76
2024/04/12 04:06:50;;;;;;;9.40;3.60;;;;;;;10.87;55.89;100805.97;107656;1254;72770;-71
2024/04/12 04:09:20;;;;;;;8.20;3.50;;;;;;;10.86;56.20;100808.75;106448;1259;70313;-76
2024/04/12 04:11:54;;;;;;;8.70;3.50;;;;;;;10.88;56.12;100805.08;106038;1254;72652;-75
2024/04/12 04:14:25;;;;;;;8.90;4.40;;;;;;;10.96;56.05;100801.61;105984;1257;60820;-76
2024/04/12 04:16:55;;;;;;;8.30;4.10;;;;;;;11.09;55.87;100805.67;106003;1252;60530;-74
2024/04/12 04:19:35;;;;;;;6.20;3.20;;;;;;;11.23;55.85;100806.69;105856;1259;73927;-74
2024/04/12 04:22:39;;;;;;;11.70;3.70;;;;;;;11.32;55.59;100808.14;105952;1256;68808;-75
2024/04/12 04:25:08;;;;;;;8.40;3.70;;;;;;;11.38;55.76;100811.27;105739;1254;71809;-74
2024/04/12 04:27:38;;;;;;;5.00;3.10;;;;;;;11.44;55.29;100814.41;106632;1254;60405;-76
2024/04/12 04:30:06;;;;;;;10.70;4.00;;;;;;;11.51;55.07;100818.21;106305;1253;60517;-76
2024/04/12 04:32:34;;;;;;;6.90;3.50;;;;;;;11.58;54.99;100822.89;105954;1260;73924;-76
2024/04/12 04:35:05;;;;;;;4.90;3.10;;;;;;;11.60;54.71;100824.05;105909;1254;70146;-75
2024/04/12 04:37:39;;;;;;;7.00;3.30;;;;;;;11.58;54.62;100820.13;106185;1254;71459;-76
2024/04/12 04:40:17;;;;;;;12.80;4.00;;;;;;;11.54;54.61;100822.31;105428;1254;60459;-76
2024/04/12 04:42:46;;;;;;;8.90;3.30;;;;;;;11.57;54.96;100824.94;106001;1254;60536;-72
2024/04/12 04:45:17;;;;;;;7.70;3.30;;;;;;;11.64;54.85;100825.63;106064;1256;74107;-75
2024/04/12 04:47:45;;;;;;;7.20;4.50;;;;;;;11.70;54.29;100821.73;106096;1254;70417;-77
2024/04/12 04:50:13;;;;;;;8.10;3.90;;;;;;;11.71;54.37;100821.41;106005;1254;72688;-75
2024/04/12 04:52:41;;;;;;;9.20;4.30;;;;;;;11.76;54.20;100825.59;105710;1254;60492;-74
2024/04/12 04:55:12;;;;;;;7.70;4.30;;;;;;;11.78;53.93;100825.02;105965;1256;61486;-75
2024/04/12 04:57:49;;;;;;;9.50;3.70;;;;;;;11.81;53.93;100826.83;105893;1253;72567;-77
2024/04/12 05:00:22;;;;;;;6.90;4.10;;;;;;;11.87;54.11;100825.18;106069;1256;68898;-76
2024/04/12 05:02:52;;;;;;;7.10;3.80;;;;;;;11.91;53.69;100827.25;107931;1254;71819;-77
2024/04/12 05:05:23;;;;;;;8.80;3.50;;;;;;;11.99;53.58;100830.46;108352;1253;58981;-78
2024/04/12 05:07:57;;;;;;;13.30;4.00;;;;;;;12.08;53.43;100827.30;106420;1254;60517;-78
2024/04/12 05:10:33;;;;;;;8.10;3.20;;;;;;;12.18;53.21;100826.80;106120;1254;73818;-78
2024/04/12 05:13:06;;;;;;;9.70;4.00;;;;;;;12.31;53.22;100829.59;106285;1254;70173;-78
2024/04/12 05:18:12;;;;;;;6.50;3.50;;;;;;;12.49;52.48;100830.86;106322;1256;60527;-78
2024/04/12 05:20:47;;;;;;;5.60;2.90;;;;;;;12.53;52.18;100832.43;105980;1253;60633;-77
2024/04/12 05:23:20;;;;;;;8.90;3.20;;;;;;;12.55;52.04;100839.46;105913;1254;72567;-76
2024/04/12 05:25:48;;;;;;;5.60;3.50;;;;;;;12.56;51.91;100837.70;106080;1256;70345;-76
2024/04/12 05:28:19;;;;;;;7.70;3.40;;;;;;;12.63;51.83;100835.64;106155;1254;74846;-78
2024/04/12 05:30:47;;;;;;;11.00;3.30;;;;;;;12.71;51.78;100834.70;106265;1253;60449;-78
2024/04/12 05:33:16;;;;;;;7.70;3.20;;;;;;;12.78;51.47;100831.45;106314;1254;62243;-79
2024/04/12 05:35:46;;;;;;;6.90;3.20;;;;;;;12.86;51.47;100829.67;105970;1254;76056;-77
2024/04/12 05:38:14;;;;;;;9.90;3.60;;;;;;;12.91;51.23;100826.08;106305;1254;72690;-77
2024/04/12 05:40:45;;;;;;;10.00;3.50;;;;;;;12.94;50.97;100821.66;106305;1256;74385;-76
2024/04/12 05:43:13;;;;;;;7.20;3.10;;;;;;;13.03;50.76;100821.69;106164;1256;62629;-76
2024/04/12 05:45:47;;;;;;;12.50;4.00;;;;;;;13.10;50.62;100816.48;106750;1254;61029;-80
2024/04/12 05:48:21;;;;;;;7.80;3.10;;;;;;;13.20;50.34;100820.43;106564;1254;72788;-79
2024/04/12 05:50:53;;;;;;;7.30;3.30;;;;;;;13.30;50.22;100823.27;106287;1254;70184;-77
2024/04/12 05:53:33;;;;;;;7.40;3.60;;;;;;;13.39;49.92;100820.60;107234;1254;71563;-79
2024/04/12 05:58:50;;;;;;;8.80;3.10;;;;;;;13.53;50.09;100820.88;107885;1254;61045;-78
2024/04/12 06:01:24;;;;;;;8.70;3.00;;;;;;;13.67;49.57;100819.53;107661;1254;75071;-79
2024/04/12 06:03:53;;;;;;;10.50;4.30;;;;;;;13.80;49.32;100820.11;106607;1259;69658;-79
2024/04/12 06:06:23;;;;;;;10.90;3.60;;;;;;;13.93;49.22;100822.20;106384;1257;73353;-81
2024/04/12 06:08:52;;;;;;;6.30;3.10;;;;;;;14.07;49.10;100819.86;106371;1254;62030;-79
2024/04/12 06:11:21;;;;;;;7.20;3.20;;;;;;;14.22;48.72;100818.61;106221;1254;61477;-80
2024/04/12 06:13:53;;;;;;;8.60;3.20;;;;;;;14.34;48.46;100821.23;106663;1253;75904;-80
2024/04/12 06:16:21;;;;;;;5.30;3.00;;;;;;;14.45;47.56;100823.85;106574;1253;69895;-78
2024/04/12 06:18:50;;;;;;;9.20;2.90;;;;;;;14.52;47.15;100823.35;106865;1254;71723;-75
2024/04/12 06:21:18;;;;;;;9.70;3.70;;;;;;;14.61;47.04;100825.34;106870;1253;61205;-78
2024/04/12 06:23:49;;;;;;;9.50;3.30;;;;;;;14.68;46.65;100819.82;106875;1254;61187;-80
2024/04/12 06:26:17;;;;;;;7.70;3.40;;;;;;;14.78;46.49;100820.91;106598;1254;76083;-80
2024/04/12 06:28:44;;;;;;;12.80;4.50;;;;;;;14.87;46.31;100819.42;106123;1261;69187;-79
2024/04/12 06:31:19;;;;;;;7.40;3.10;;;;;;;14.99;46.31;100824.33;106499;1253;72076;-80
2024/04/12 06:33:50;;;;;;;8.50;3.30;;;;;;;15.11;46.32;100819.36;106607;1254;61273;-81
2024/04/12 06:36:18;;;;;;;9.60;2.90;;;;;;;15.21;45.73;100820.23;106512;1254;61834;-80
2024/04/12 06:38:46;;;;;;;8.50;3.20;;;;;;;15.27;45.51;100819.92;106389;1254;73211;-80
2024/04/12 06:41:15;;;;;;;10.50;3.10;;;;;;;15.33;45.64;100820.31;106660;1253;69401;-81
2024/04/12 06:43:43;;;;;;;9.80;3.10;;;;;;;15.41;45.16;100820.48;106537;1254;74734;-83
2024/04/12 06:46:13;;;;;;;13.40;4.90;;;;;;;15.48;45.20;100822.27;106539;1254;61295;-78
2024/04/12 06:48:42;;;;;;;10.10;3.70;;;;;;;15.57;44.98;100818.94;108146;1254;59931;-80
2024/04/12 06:51:13;;;;;;;7.80;3.30;;;;;;;15.67;44.96;100822.45;108530;1253;75647;-80
2024/04/12 06:53:44;;;;;;;8.10;3.20;;;;;;;15.74;44.44;100821.59;107943;1254;69417;-80
2024/04/12 06:56:15;;;;;;;8.70;3.10;;;;;;;15.76;44.52;100816.77;107208;1255;70839;-78
2024/04/12 06:58:46;;;;;;;8.60;3.40;;;;;;;15.80;44.40;100817.51;107254;1254;62232;-79
2024/04/12 07:01:15;;;;;;;8.60;3.10;;;;;;;15.81;44.55;100816.58;107027;1259;61352;-78
2024/04/12 07:03:45;;;;;;;10.40;3.80;;;;;;;15.82;44.55;100813.41;108523;1253;73615;-79
2024/04/12 07:06:16;;;;;;;8.90;2.70;;;;;;;15.84;44.30;100816.02;108679;1254;71220;-80
2024/04/12 07:08:49;;;;;;;6.70;3.30;;;;;;;15.88;43.99;100819.98;108502;1253;73876;-79
2024/04/12 07:11:18;;;;;;;8.50;3.20;;;;;;;15.93;43.54;100819.45;108757;1254;62639;-79
2024/04/12 07:13:53;;;;;;;11.50;3.30;;;;;;;15.96;43.29;100821.07;107153;1254;60727;-78
2024/04/12 07:16:21;;;;;;;8.90;3.30;;;;;;;16.03;43.30;100823.38;106895;1254;76257;-79
2024/04/12 07:18:49;;;;;;;6.50;2.90;;;;;;;16.08;43.24;100821.70;106554;1259;72333;-79
2024/04/12 07:21:22;;;;;;;7.70;3.60;;;;;;;16.15;42.83;100821.59;106748;1254;75104;-80
2024/04/12 07:23:51;;;;;;;9.30;3.70;;;;;;;16.20;42.71;100827.05;108134;1254;62128;-81
2024/04/12 07:26:26;;;;;;;10.90;2.90;;;;;;;16.24;42.60;100819.98;107051;1254;62546;-78
2024/04/12 07:28:59;;;;;;;5.70;3.00;;;;;;;16.31;42.84;100818.49;106564;1254;76634;-76
2024/04/12 07:31:30;;;;;;;6.20;3.20;;;;;;;16.41;42.64;100820.02;107482;1252;72154;-80
2024/04/12 07:33:59;;;;;;;6.60;3.00;;;;;;;16.52;42.67;100818.29;106395;1257;74613;-80
2024/04/12 07:36:30;;;;;;;8.70;3.20;;;;;;;16.61;42.43;100814.09;106268;1254;62057;-76
2024/04/12 07:39:01;;;;;;;11.50;3.70;;;;;;;16.65;42.17;100814.95;106537;1254;61231;-79
2024/04/12 07:41:37;;;;;;;4.70;2.90;;;;;;;16.69;42.18;100809.88;106460;1259;75572;-78
2024/04/12 07:44:05;;;;;;;9.80;3.30;;;;;;;16.77;41.88;100805.38;106124;1254;72282;-77
2024/04/12 07:46:33;;;;;;;6.20;2.70;;;;;;;16.84;41.73;100806.72;106324;1254;74839;-76
2024/04/12 07:49:07;;;;;;;6.70;3.00;;;;;;;16.90;41.43;100808.00;106834;1254;62061;-74
2024/04/12 07:51:39;;;;;;;7.50;3.10;;;;;;;16.96;41.12;100800.86;107426;1252;61660;-75
2024/04/12 07:54:11;;;;;;;11.10;2.70;;;;;;;17.02;41.17;100798.51;107348;1254;75716;-77
2024/04/12 07:56:43;;;;;;;14.20;3.50;;;;;;;17.07;40.69;100800.66;106685;1254;70618;-78
2024/04/12 07:59:15;;;;;;;11.20;2.80;;;;;;;17.06;40.73;100793.34;107233;1254;73539;-77
2024/04/12 08:01:46;;;;;;;10.20;3.50;;;;;;;17.06;40.87;100793.27;107492;1260;61323;-79
2024/04/12 08:04:23;;;;;;;8.60;2.90;;;;;;;17.09;40.91;100787.06;106787;1254;62395;-80
2024/04/12 08:06:55;;;;;;;8.50;3.20;;;;;;;17.17;40.70;100789.42;106771;1252;75645;-79
2024/04/12 08:09:44;;;;;;;7.30;2.60;;;;;;;17.26;40.41;100788.06;106593;1254;70400;-81
2024/04/12 08:12:23;;;;;;;6.00;2.60;;;;;;;17.35;40.09;100784.17;106635;1254;72960;-81
2024/04/12 08:15:06;;;;;;;6.90;3.10;;;;;;;17.40;40.15;100781.30;106621;1254;61292;-82
2024/04/12 08:17:39;;;;;;;;;;;;;;;17.50;40.19;100777.45;106676;1255;62656;-79
2024/04/12 08:20:13;;;;;;;8.90;3.20;;;;;;;17.63;40.25;100771.98;106461;1256;74925;-82
2024/04/12 08:22:46;;;;;;;7.70;3.00;;;;;;;17.74;40.07;100768.31;106465;1254;72289;-80
2024/04/12 08:25:17;;;;;;;7.50;2.80;;;;;;;17.84;39.89;100769.13;105870;1254;73669;-81
2024/04/12 08:27:45;;;;;;;7.80;2.70;;;;;;;17.94;39.55;100764.75;106508;1254;61269;-80
2024/04/12 08:30:13;;;;;;;6.20;2.50;;;;;;;17.99;38.69;100760.45;106429;1253;62040;-79
2024/04/12 08:32:48;;;;;;;6.00;2.50;;;;;;;18.07;38.86;100764.29;106443;1256;74889;-81
2024/04/12 08:35:24;;;;;;;5.30;2.80;;;;;;;18.22;38.20;100757.45;106310;1254;72271;-81
2024/04/12 08:37:52;;;;;;;6.60;2.70;;;;;;;18.33;37.97;100748.38;106107;1254;75027;-82
2024/04/12 08:40:24;;;;;;;7.30;2.70;;;;;;;18.46;37.48;100740.25;106328;1255;61298;-78
2024/04/12 08:42:55;;;;;;;8.00;3.10;;;;;;;18.60;37.55;100737.24;106203;1259;61330;-78
2024/04/12 08:45:30;;;;;;;5.30;2.60;;;;;;;18.76;37.51;100729.98;107410;1252;74950;-79
2024/04/12 08:48:06;;;;;;;8.30;2.40;;;;;;;18.98;36.81;100734.19;107490;1254;71366;-74
2024/04/12 08:50:35;;;;;;;4.30;2.10;;;;;;;19.15;36.58;100731.30;106667;1256;73768;-76
2024/04/12 08:53:11;;;;;;;12.50;2.80;;;;;;;19.31;36.16;100729.90;105843;1262;61208;-77
2024/04/12 08:55:44;;;;;;;11.00;3.20;;;;;;;19.49;35.94;100728.31;106023;1257;61165;-76
2024/04/12 08:58:20;;;;;;;4.10;2.30;;;;;;;19.72;35.64;100722.63;106014;1259;74916;-75
2024/04/12 09:00:52;;;;;;;10.40;2.60;;;;;;;19.99;35.31;100713.92;107351;1254;70832;-75
2024/04/12 09:03:26;;;;;;;6.50;2.80;;;;;;;20.25;34.52;100707.58;107765;1254;71754;-76
2024/04/12 09:05:56;;;;;;;5.30;2.60;;;;;;;20.51;34.71;100711.04;108090;1254;61007;-76
2024/04/12 09:08:28;;;;;;;4.80;2.60;;;;;;;20.87;34.24;100700.95;108263;1253;60004;-76
2024/04/12 09:11:01;;;;;;;4.10;2.40;;;;;;;21.32;33.41;100696.09;108110;1258;77027;-77
2024/04/12 09:13:33;;;;;;;8.10;2.80;;;;;;;21.75;32.41;100694.48;108014;1254;71018;-76
2024/04/12 09:16:06;;;;;;;3.50;2.20;;;;;;;22.26;32.11;100696.23;108193;1254;73266;-75
2024/04/12 09:18:46;;;;;;;5.30;2.30;;;;;;;22.94;31.84;100692.83;108139;1254;61038;-75
2024/04/12 09:21:29;;;;;;;4.60;2.50;;;;;;;23.63;30.93;100688.40;108268;1254;60098;-76
2024/04/12 09:23:58;;;;;;;4.80;2.90;;;;;;;24.31;30.49;100682.98;108200;1255;74899;-76
2024/04/12 09:26:39;;;;;;;4.80;2.30;;;;;;;25.04;29.94;100679.03;108150;1254;71277;-75
2024/04/12 09:29:11;;;;;;;6.20;3.00;;;;;;;25.73;29.47;100669.62;108356;1252;71233;-77
2024/04/12 09:34:35;;;;;;;6.20;3.00;;;;;;;26.75;28.73;100653.89;107837;1254;61178;-75
2024/04/12 09:37:28;;;;;;;6.90;3.00;;;;;;;27.24;28.06;100646.94;107665;1254;75328;-74
2024/04/12 09:42:45;;;;;;;5.20;2.50;;;;;;;27.98;27.08;100638.78;108134;1254;75235;-76
2024/04/12 09:45:19;;;;;;;4.30;2.80;;;;;;;28.49;26.87;100633.25;108293;1253;61328;-77
2024/04/12 10:38:14;;;;;;;6.60;3.10;;;;;;;30.33;24.26;100593.46;108594;1254;74116;-78
2024/04/12 10:41:07;;;;;;;4.80;2.70;;;;;;;31.15;23.39;100595.27;108697;1254;59817;-80
2024/04/12 10:43:41;;;;;;;3.20;2.50;;;;;;;31.54;23.24;100590.60;108587;1254;62398;-79
2024/04/12 10:46:11;;;;;;;3.80;2.60;;;;;;;31.83;22.72;100582.52;109210;1253;75639;-77
2024/04/12 10:48:41;;;;;;;3.40;2.40;;;;;;;31.91;22.96;100580.09;109025;1254;71306;-80
2024/04/12 10:51:09;;;;;;;7.50;2.80;;;;;;;32.36;22.94;100580.88;109276;1254;73725;-78
2024/04/12 10:53:42;;;;;;;4.40;2.60;;;;;;;32.92;22.76;100570.58;108920;1254;59018;-78
2024/04/12 10:56:18;;;;;;;5.70;2.50;;;;;;;33.31;22.40;100566.46;108918;1253;61273;-76
2024/04/12 10:58:51;;;;;;;4.30;2.60;;;;;;;33.63;22.30;100567.49;108851;1258;76876;-77
2024/04/12 11:01:22;;;;;;;4.30;2.60;;;;;;;33.82;22.23;100564.29;108961;1256;71196;-77
2024/04/12 11:03:59;;;;;;;3.90;2.60;;;;;;;33.89;22.13;100555.82;108633;1254;72684;-75
2024/04/12 11:06:34;;;;;;;6.10;2.70;;;;;;;34.01;22.24;100554.34;108878;1253;61163;-76
2024/04/12 11:09:05;;;;;;;5.50;2.50;;;;;;;34.35;22.33;100549.42;108127;1255;60445;-76
2024/04/12 11:11:38;;;;;;;6.10;3.00;;;;;;;34.58;22.21;100545.62;108226;1254;78010;-77
2024/04/12 11:14:15;;;;;;;4.50;2.60;;;;;;;34.49;22.22;100539.92;108834;1254;71115;-77
2024/04/12 11:33:32;;;;;;;6.10;2.40;;;;;;;33.08;23.65;100515.74;107073;1259;61626;-78
2024/04/12 11:36:10;;;;;;;3.90;2.80;;;;;;;33.34;23.39;100516.14;107311;1254;62189;-75
2024/04/12 11:38:39;;;;;;;3.80;2.80;;;;;;;33.23;23.15;100514.35;107201;1253;76750;-76
2024/04/12 11:41:07;;;;;;;3.20;2.10;;;;;;;32.37;23.83;100513.24;108250;1254;71163;-76
2024/04/12 11:43:34;;;;;;;5.00;2.30;;;;;;;31.59;24.59;100512.02;107137;1254;74230;-75
2024/04/12 11:46:02;;;;;;;3.90;2.80;;;;;;;31.12;25.07;100513.23;105781;1255;61348;-77
2024/04/12 11:48:31;;;;;;;4.80;2.50;;;;;;;31.10;25.21;100508.92;106339;1258;61333;-76
2024/04/12 11:50:59;;;;;;;5.20;2.40;;;;;;;31.58;25.14;100502.68;106449;1262;76717;-76
2024/04/12 11:53:27;;;;;;;4.90;2.30;;;;;;;32.50;24.75;100492.59;106557;1256;71520;-76
2024/04/12 11:55:55;;;;;;;5.00;2.60;;;;;;;33.47;24.09;100487.17;106258;1257;73974;-75
2024/04/12 11:58:22;;;;;;;4.00;2.60;;;;;;;33.80;23.86;100483.71;106294;1254;62060;-76
2024/04/12 12:00:52;;;;;;;3.70;2.20;;;;;;;33.94;23.81;100481.77;106309;1257;61145;-77
2024/04/12 12:03:21;;;;;;;2.80;2.20;;;;;;;34.29;23.31;100475.93;106125;1254;76153;-77
2024/04/12 12:05:52;;;;;;;4.80;2.10;;;;;;;34.47;23.64;100469.61;106430;1258;71299;-80
2024/04/12 12:08:32;;;;;;;4.30;2.00;;;;;;;34.83;23.54;100461.73;108367;1254;75375;-80
2024/04/12 12:11:05;;;;;;;4.70;2.50;;;;;;;35.31;23.12;100466.98;106788;1260;61260;-77
2024/04/12 12:13:32;;;;;;;;;;;;;;;35.42;23.13;100458.73;106478;1257;61161;-76
2024/04/12 12:16:00;;;;;;;4.40;2.20;;;;;;;35.32;22.90;100459.40;106341;1257;68072;-77
2024/04/12 12:18:29;;;;;;;3.10;2.20;;;;;;;34.91;23.18;100453.32;106275;1260;62406;-76
2024/04/12 12:20:57;;;;;;;3.80;2.50;;;;;;;34.39;23.51;100452.27;107847;1254;64583;-77
2024/04/12 12:23:24;;;;;;;2.40;2.20;;;;;;;33.78;23.66;100457.61;106361;1265;62243;-76
2024/04/12 12:25:52;;;;;;;3.80;2.40;;;;;;;33.02;24.10;100456.94;107422;1258;61047;-76
2024/04/12 12:28:20;;;;;;;4.80;2.10;;;;;;;32.05;24.88;100455.14;106697;1256;75520;-77
2024/04/12 12:30:54;;;;;;;3.90;2.10;;;;;;;31.16;25.79;100459.48;106297;1260;72965;-76
2024/04/12 12:33:23;;;;;;;3.80;2.10;;;;;;;30.66;26.45;100456.84;106698;1259;73552;-75
2024/04/12 12:35:50;;;;;;;4.00;2.20;;;;;;;30.84;26.34;100455.52;106448;1260;62255;-72
2024/04/12 12:38:18;;;;;;;3.80;2.20;;;;;;;31.39;26.36;100445.71;107968;1253;62195;-76
2024/04/12 12:40:45;;;;;;;6.30;2.30;;;;;;;32.39;25.40;100446.94;108203;1254;75769;-77
2024/04/12 12:43:13;;;;;;;5.00;2.40;;;;;;;33.21;24.86;100438.05;106573;1259;72408;-78
2024/04/12 12:45:40;;;;;;;3.10;2.10;;;;;;;33.65;24.42;100440.95;106526;1256;75512;-77
2024/04/12 12:48:21;;;;;;;2.70;2.00;;;;;;;33.40;24.38;100434.10;106487;1258;61176;-77
2024/04/12 12:50:50;;;;;;;3.20;2.20;;;;;;;32.52;24.91;100428.35;106464;1257;61250;-76
2024/04/12 12:53:22;;;;;;;4.20;2.40;;;;;;;31.85;25.55;100426.23;106623;1254;77496;-78
2024/04/12 12:55:51;;;;;;;3.40;2.10;;;;;;;31.14;25.89;100431.02;106617;1254;72302;-81
2024/04/12 12:58:22;;;;;;;8.00;2.60;;;;;;;30.16;26.71;100420.33;106639;1257;75424;-82
2024/04/12 13:00:49;;;;;;;3.80;2.90;;;;;;;29.29;27.64;100429.75;106565;1257;62213;-82